Terminal Aerodrome Forecast
Issued by NWS

Home | Current Version | Previous Version | Text Only | Print | Product List | Glossary On
Versions: 1 2 3 4 5 6 7 8 9 10 11 12 13 14 15 16 17 18 19
000
FTUS43 KABR 260800 AAA
TAFPIR
TAF AMD
KPIR 260813Z 2608/2706 02006KT P6SM SCT100 BKN150
     FM261400 32010KT P6SM BKN250
     FM261600 31018G28KT P6SM SKC
     FM270200 32009KT P6SM SKC=

USA.gov is the U.S. government's official web portal to all federal, state and local government web resources and services.